Haukur — OZ2119 — position and weather

sailwx.info

Track history (hours):
 
Tides and Currents Weather Stations Pressure Air Temp Water Temp Dewpoint Dewpoint Depression Visibility Wind Speed Wind Dir Waves Ship Positions

Haukur

Last reported at 2017-Jan-20 05:33 UTC. Time now 2017-Jan-21 02:04 UTC.
Position N 58°54' E 004°11'.

Length 75 m; draft 6.1 m.

Type: Cargo ship. MMSI: 231812000.

Date/timePositionNaut miles runAvg speedWind from/ knotsBaromVisibWave heightAir tempDewpointWater temp
2017-Jan-20 05:33N 58°54' E 004°11'8 7.7
2017-Jan-20 04:33N 58°48' E 004°22'8 7.5
2017-Jan-20 03:33N 58°43' E 004°33'8 7.7
2017-Jan-20 02:33N 58°38' E 004°44'8 7.5
2017-Jan-20 01:33N 58°34' E 004°55'8 7.6
2017-Jan-20 00:33N 58°29' E 005°07'8 7.7
2017-Jan-19 23:33N 58°25' E 005°19'8 7.8
2017-Jan-19 22:30N 58°21' E 005°33'8 7.9
2017-Jan-19 21:33N 58°17' E 005°45'8 7.7
2017-Jan-19 20:33N 58°13' E 005°57'8 8.0
2017-Jan-19 19:33N 58°09' E 006°11'8 8.0
2017-Jan-19 18:32N 58°05' E 006°24'8 7.8
2017-Jan-19 17:32N 58°01' E 006°37'7 6.7
2017-Jan-19 16:33N 57°57' E 006°48'8 7.2
2017-Jan-19 15:23N 57°54' E 007°02'7 8.0
2017-Jan-19 14:33N 57°53' E 007°15'8 7.8
2017-Jan-19 13:31N 57°53' E 007°30'72 7.0
2017-Jan-19 03:10N 57°50' E 009°45'4 6.5
2017-Jan-19 02:32N 57°50' E 009°53'8 6.0
2017-Jan-19 01:09N 57°50' E 010°08'5 6.0
2017-Jan-19 00:23N 57°49' E 010°17'5 6.0
2017-Jan-18 23:33N 57°49' E 010°26'6 5.6
2017-Jan-18 22:33N 57°49' E 010°37'6 5.8
2017-Jan-18 21:33N 57°49' E 010°48'7 6.8
2017-Jan-18 20:33N 57°44' E 010°57'7 7.3
2017-Jan-18 19:33N 57°39' E 011°06'8 7.9
2017-Jan-18 18:33N 57°33' E 011°16'8 8.3
2017-Jan-18 17:33N 57°27' E 011°27'9 8.7
2017-Jan-18 16:33N 57°19' E 011°33'9 9.0
2017-Jan-18 15:33N 57°10' E 011°38'9 9.2
2017-Jan-18 14:33N 57°02' E 011°45'52 8.6
2017-Jan-18 08:31N 56°15' E 012°26'1010.8
2017-Jan-18 07:33N 56°06' E 012°35'1010.1
2017-Jan-18 06:33N 55°57' E 012°43'10 9.7
2017-Jan-18 05:33N 55°48' E 012°43'10 9.8
2017-Jan-18 04:33N 55°38' E 012°42'9 9.2
2017-Jan-18 03:33N 55°29' E 012°43'9 9.1
2017-Jan-18 02:33N 55°20' E 012°41'8 8.4
2017-Jan-18 01:33N 55°16' E 012°54'9 8.8
2017-Jan-18 00:33N 55°15' E 013°10'9 8.9
2017-Jan-17 23:33N 55°15' E 013°25'9 8.9
2017-Jan-17 22:33N 55°14' E 013°41'9 9.1
2017-Jan-17 21:32N 55°14' E 013°57'9 9.1
2017-Jan-17 20:32N 55°12' E 014°13'9 8.9
2017-Jan-17 19:33N 55°07' E 014°25'9 8.8
2017-Jan-17 18:33N 55°01' E 014°37'8 8.4
2017-Jan-17 17:33N 54°57' E 014°49'9 8.9
2017-Jan-17 16:33N 54°56' E 015°05'9 8.8
2017-Jan-17 15:33N 54°55' E 015°20'76 9.0
2017-Jan-17 07:04N 54°55' E 017°32'4 8.5
2017-Jan-17 06:33N 54°55' E 017°40'9 8.8
2017-Jan-17 05:29N 54°54' E 017°56'8 8.8
2017-Jan-17 04:33N 54°54' E 018°10'9 8.6
2017-Jan-17 03:33N 54°52' E 018°25'9 9.1
2017-Jan-17 02:33N 54°47' E 018°38'9 8.6
2017-Jan-17 01:33N 54°43' E 018°51'6 6.3
2017-Jan-17 00:33N 54°37' E 018°55'8 7.9
2017-Jan-16 23:33N 54°32' E 018°45'7 7.2
2017-Jan-16 22:32N 54°32' E 018°32'0 0.0
2017-Jan-16 21:32N 54°32' E 018°32'0 0.0
2017-Jan-16 20:32N 54°32' E 018°32'0 0.0
2017-Jan-16 19:32N 54°32' E 018°32'0 0.0
2017-Jan-16 18:32N 54°32' E 018°32'0 0.0
2017-Jan-16 17:32N 54°32' E 018°32'0 0.0
2017-Jan-16 16:32N 54°32' E 018°32'0 0.0
2017-Jan-16 15:32N 54°32' E 018°32'0 0.0
2017-Jan-16 14:29N 54°32' E 018°32'0 0.0
2017-Jan-16 13:32N 54°32' E 018°32'0 0.0
2017-Jan-16 12:32N 54°32' E 018°32'0 0.0
2017-Jan-16 11:32N 54°32' E 018°32'0 0.0
2017-Jan-16 10:32N 54°32' E 018°32'0 0.0
2017-Jan-16 09:32N 54°32' E 018°32'0 0.0
2017-Jan-16 08:32N 54°32' E 018°32'0 0.0
2017-Jan-16 07:32N 54°32' E 018°32'0 0.0
2017-Jan-16 06:32N 54°32' E 018°32'0 0.0
2017-Jan-16 05:32N 54°32' E 018°32'0 0.0
2017-Jan-16 04:32N 54°32' E 018°32'0 0.0
2017-Jan-16 03:32N 54°32' E 018°32'0 0.0
2017-Jan-16 02:32N 54°32' E 018°32'0 0.0
2017-Jan-16 01:32N 54°32' E 018°32'0 0.0
2017-Jan-16 00:32N 54°32' E 018°32'0 0.0
2017-Jan-15 23:32N 54°32' E 018°32'0 0.0
2017-Jan-15 22:32N 54°32' E 018°32'2 1.8
2017-Jan-15 21:34N 54°32' E 018°35'0 0.0
2017-Jan-15 20:33N 54°32' E 018°35'0 0.0
2017-Jan-15 19:33N 54°32' E 018°35'0 0.0
2017-Jan-15 18:33N 54°32' E 018°35'0 0.0
2017-Jan-15 17:33N 54°32' E 018°35'0 0.0
2017-Jan-15 16:33N 54°32' E 018°35'0 0.0
2017-Jan-15 15:33N 54°32' E 018°35'1 1.0
2017-Jan-15 14:33N 54°32' E 018°37'8 8.0
2017-Jan-15 13:33N 54°34' E 018°50'8 7.7
2017-Jan-15 12:33N 54°41' E 018°55'10 9.6
2017-Jan-15 11:33N 54°46' E 018°41'9 9.4
2017-Jan-15 10:33N 54°51' E 018°27'9 9.0
2017-Jan-15 09:31N 54°54' E 018°11'9 9.3
2017-Jan-15 08:33N 54°53' E 017°56'101 8.8
2017-Jan-14 21:06N 54°39' E 015°02'30 8.2
2017-Jan-14 17:27N 54°38' E 014°11'70 7.8
2017-Jan-14 08:28N 54°25' E 012°12'9 8.7
2017-Jan-14 07:24N 54°25' E 011°56'7 8.6
2017-Jan-14 06:33N 54°25' E 011°44'9 8.8
2017-Jan-14 05:33N 54°29' E 011°30'9 9.2
2017-Jan-14 04:33N 54°33' E 011°16'9 8.7
2017-Jan-14 03:33N 54°35' E 011°01'57 6.0
2017-Jan-13 18:05N 54°11' E 009°31'5 8.5
2017-Jan-13 17:33N 54°10' E 009°24'8 7.7
2017-Jan-13 16:33N 54°03' E 009°18'8 7.7
2017-Jan-13 15:33N 53°56' E 009°13'3 3.2
2017-Jan-13 14:33N 53°54' E 009°09'1 1.3
2017-Jan-13 13:33N 53°53' E 009°07'1010.2
2017-Jan-13 12:33N 53°50' E 008°50'1110.8
2017-Jan-13 11:33N 53°57' E 008°36'1111.3
2017-Jan-13 10:33N 53°59' E 008°17'1110.7
2017-Jan-13 09:33N 53°58' E 007°59'1110.6
2017-Jan-13 08:33N 53°56' E 007°42'103 8.6
2017-Jan-12 20:32N 53°21' E 004°58'4 4.1
2017-Jan-12 19:33N 53°19' E 005°03'5 4.9
2017-Jan-12 18:33N 53°16' E 005°10'6 6.4
2017-Jan-12 17:33N 53°12' E 005°18'5 4.6
2017-Jan-12 16:33N 53°11' E 005°26'1 0.5
2017-Jan-12 15:31N 53°12' E 005°26'0 0.0
2017-Jan-12 14:31N 53°12' E 005°26'0 0.0
2017-Jan-12 13:31N 53°12' E 005°26'0 0.0
2017-Jan-12 12:31N 53°12' E 005°26'0 0.0
2017-Jan-12 11:31N 53°12' E 005°26'0 0.0
2017-Jan-12 10:31N 53°12' E 005°26'0 0.0
2017-Jan-12 09:31N 53°12' E 005°26'0 0.0
2017-Jan-12 08:31N 53°12' E 005°26'0 0.0
2017-Jan-12 07:31N 53°12' E 005°26'0 0.0
2017-Jan-12 06:31N 53°12' E 005°26'0 0.0
2017-Jan-12 05:31N 53°12' E 005°26'0 0.0
2017-Jan-12 04:31N 53°12' E 005°26'0 0.0
2017-Jan-12 03:31N 53°12' E 005°26'0 0.0
2017-Jan-12 02:31N 53°12' E 005°26'0 0.0
2017-Jan-12 01:31N 53°12' E 005°26'0 0.0
2017-Jan-12 00:31N 53°12' E 005°26'0 0.0
2017-Jan-11 23:31N 53°12' E 005°26'0 0.0
2017-Jan-11 22:31N 53°12' E 005°26'0 0.0
2017-Jan-11 21:31N 53°12' E 005°26'0 0.0
2017-Jan-11 20:34N 53°12' E 005°26'0 0.0
2017-Jan-11 19:33N 53°12' E 005°26'0 0.0
2017-Jan-11 18:33N 53°12' E 005°26'0 0.0
2017-Jan-11 17:33N 53°12' E 005°26'0 0.0
2017-Jan-11 16:33N 53°12' E 005°26'0 0.0
2017-Jan-11 15:33N 53°12' E 005°26'0 0.0
2017-Jan-11 14:33N 53°12' E 005°26'0 0.0
2017-Jan-11 13:33N 53°12' E 005°26'0 0.0
2017-Jan-11 12:33N 53°12' E 005°26'0 0.0
2017-Jan-11 11:33N 53°12' E 005°26'0 0.0
2017-Jan-11 10:33N 53°12' E 005°26'0 0.0
2017-Jan-11 09:33N 53°12' E 005°26'0 0.0
2017-Jan-11 08:33N 53°12' E 005°26'0 0.0
2017-Jan-11 07:33N 53°12' E 005°26'0 0.0
2017-Jan-11 06:33N 53°12' E 005°26'0 0.0
2017-Jan-11 05:33N 53°12' E 005°26'0 0.0
2017-Jan-11 04:33N 53°12' E 005°26'0 0.0
2017-Jan-11 03:33N 53°12' E 005°26'0 0.1
2017-Jan-11 02:34N 53°12' E 005°26'4 4.2
2017-Jan-11 01:33N 53°12' E 005°19'7 7.0
2017-Jan-11 00:33N 53°15' E 005°10'5 5.0
2017-Jan-10 23:33N 53°19' E 005°04'5 4.9
2017-Jan-10 22:33N 53°23' E 004°59'102 8.5
2017-Jan-10 10:32N 53°58' E 007°40'9 9.4
2017-Jan-10 09:33N 53°52' E 007°52'9 9.4
2017-Jan-10 08:33N 53°49' E 008°07'8 8.1
2017-Jan-10 07:33N 53°43' E 008°17'7 7.4
2017-Jan-10 06:33N 53°38' E 008°26'8 7.7
2017-Jan-10 05:33N 53°32' E 008°34'  
Track history (hours):
 
Tides and Currents Weather Stations Pressure Air Temp Water Temp Dewpoint Dewpoint Depression Visibility Wind Speed Wind Dir Waves Ship Positions

Haukur

Last reported at 2017-Jan-20 05:33 UTC. Time now 2017-Jan-21 02:04 UTC.
Position N 58°54' E 004°11'.

Length 75 m; draft 6.1 m.

Type: Cargo ship. MMSI: 231812000.

Date/timePositionNaut miles runAvg speedWind from/ knotsBaromVisibWave heightAir tempDewpointWater temp
2017-Jan-20 05:33N 58°54' E 004°11'8 7.7
2017-Jan-20 04:33N 58°48' E 004°22'8 7.5
2017-Jan-20 03:33N 58°43' E 004°33'8 7.7
2017-Jan-20 02:33N 58°38' E 004°44'8 7.5
2017-Jan-20 01:33N 58°34' E 004°55'8 7.6
2017-Jan-20 00:33N 58°29' E 005°07'8 7.7
2017-Jan-19 23:33N 58°25' E 005°19'8 7.8
2017-Jan-19 22:30N 58°21' E 005°33'8 7.9
2017-Jan-19 21:33N 58°17' E 005°45'8 7.7
2017-Jan-19 20:33N 58°13' E 005°57'8 8.0
2017-Jan-19 19:33N 58°09' E 006°11'8 8.0
2017-Jan-19 18:32N 58°05' E 006°24'8 7.8
2017-Jan-19 17:32N 58°01' E 006°37'7 6.7
2017-Jan-19 16:33N 57°57' E 006°48'8 7.2
2017-Jan-19 15:23N 57°54' E 007°02'7 8.0
2017-Jan-19 14:33N 57°53' E 007°15'8 7.8
2017-Jan-19 13:31N 57°53' E 007°30'72 7.0
2017-Jan-19 03:10N 57°50' E 009°45'4 6.5
2017-Jan-19 02:32N 57°50' E 009°53'8 6.0
2017-Jan-19 01:09N 57°50' E 010°08'5 6.0
2017-Jan-19 00:23N 57°49' E 010°17'5 6.0
2017-Jan-18 23:33N 57°49' E 010°26'6 5.6
2017-Jan-18 22:33N 57°49' E 010°37'6 5.8
2017-Jan-18 21:33N 57°49' E 010°48'7 6.8
2017-Jan-18 20:33N 57°44' E 010°57'7 7.3
2017-Jan-18 19:33N 57°39' E 011°06'8 7.9
2017-Jan-18 18:33N 57°33' E 011°16'8 8.3
2017-Jan-18 17:33N 57°27' E 011°27'9 8.7
2017-Jan-18 16:33N 57°19' E 011°33'9 9.0
2017-Jan-18 15:33N 57°10' E 011°38'9 9.2
2017-Jan-18 14:33N 57°02' E 011°45'52 8.6
2017-Jan-18 08:31N 56°15' E 012°26'1010.8
2017-Jan-18 07:33N 56°06' E 012°35'1010.1
2017-Jan-18 06:33N 55°57' E 012°43'10 9.7
2017-Jan-18 05:33N 55°48' E 012°43'10 9.8
2017-Jan-18 04:33N 55°38' E 012°42'9 9.2
2017-Jan-18 03:33N 55°29' E 012°43'9 9.1
2017-Jan-18 02:33N 55°20' E 012°41'8 8.4
2017-Jan-18 01:33N 55°16' E 012°54'9 8.8
2017-Jan-18 00:33N 55°15' E 013°10'9 8.9
2017-Jan-17 23:33N 55°15' E 013°25'9 8.9
2017-Jan-17 22:33N 55°14' E 013°41'9 9.1
2017-Jan-17 21:32N 55°14' E 013°57'9 9.1
2017-Jan-17 20:32N 55°12' E 014°13'9 8.9
2017-Jan-17 19:33N 55°07' E 014°25'9 8.8
2017-Jan-17 18:33N 55°01' E 014°37'8 8.4
2017-Jan-17 17:33N 54°57' E 014°49'9 8.9
2017-Jan-17 16:33N 54°56' E 015°05'9 8.8
2017-Jan-17 15:33N 54°55' E 015°20'76 9.0
2017-Jan-17 07:04N 54°55' E 017°32'4 8.5
2017-Jan-17 06:33N 54°55' E 017°40'9 8.8
2017-Jan-17 05:29N 54°54' E 017°56'8 8.8
2017-Jan-17 04:33N 54°54' E 018°10'9 8.6
2017-Jan-17 03:33N 54°52' E 018°25'9 9.1
2017-Jan-17 02:33N 54°47' E 018°38'9 8.6
2017-Jan-17 01:33N 54°43' E 018°51'6 6.3
2017-Jan-17 00:33N 54°37' E 018°55'8 7.9
2017-Jan-16 23:33N 54°32' E 018°45'7 7.2
2017-Jan-16 22:32N 54°32' E 018°32'0 0.0
2017-Jan-16 21:32N 54°32' E 018°32'0 0.0
2017-Jan-16 20:32N 54°32' E 018°32'0 0.0
2017-Jan-16 19:32N 54°32' E 018°32'0 0.0
2017-Jan-16 18:32N 54°32' E 018°32'0 0.0
2017-Jan-16 17:32N 54°32' E 018°32'0 0.0
2017-Jan-16 16:32N 54°32' E 018°32'0 0.0
2017-Jan-16 15:32N 54°32' E 018°32'0 0.0
2017-Jan-16 14:29N 54°32' E 018°32'0 0.0
2017-Jan-16 13:32N 54°32' E 018°32'0 0.0
2017-Jan-16 12:32N 54°32' E 018°32'0 0.0
2017-Jan-16 11:32N 54°32' E 018°32'0 0.0
2017-Jan-16 10:32N 54°32' E 018°32'0 0.0
2017-Jan-16 09:32N 54°32' E 018°32'0 0.0
2017-Jan-16 08:32N 54°32' E 018°32'0 0.0
2017-Jan-16 07:32N 54°32' E 018°32'0 0.0
2017-Jan-16 06:32N 54°32' E 018°32'0 0.0
2017-Jan-16 05:32N 54°32' E 018°32'0 0.0
2017-Jan-16 04:32N 54°32' E 018°32'0 0.0
2017-Jan-16 03:32N 54°32' E 018°32'0 0.0
2017-Jan-16 02:32N 54°32' E 018°32'0 0.0
2017-Jan-16 01:32N 54°32' E 018°32'0 0.0
2017-Jan-16 00:32N 54°32' E 018°32'0 0.0
2017-Jan-15 23:32N 54°32' E 018°32'0 0.0
2017-Jan-15 22:32N 54°32' E 018°32'2 1.8
2017-Jan-15 21:34N 54°32' E 018°35'0 0.0
2017-Jan-15 20:33N 54°32' E 018°35'0 0.0
2017-Jan-15 19:33N 54°32' E 018°35'0 0.0
2017-Jan-15 18:33N 54°32' E 018°35'0 0.0
2017-Jan-15 17:33N 54°32' E 018°35'0 0.0
2017-Jan-15 16:33N 54°32' E 018°35'0 0.0
2017-Jan-15 15:33N 54°32' E 018°35'1 1.0
2017-Jan-15 14:33N 54°32' E 018°37'8 8.0
2017-Jan-15 13:33N 54°34' E 018°50'8 7.7
2017-Jan-15 12:33N 54°41' E 018°55'10 9.6
2017-Jan-15 11:33N 54°46' E 018°41'9 9.4
2017-Jan-15 10:33N 54°51' E 018°27'9 9.0
2017-Jan-15 09:31N 54°54' E 018°11'9 9.3
2017-Jan-15 08:33N 54°53' E 017°56'101 8.8
2017-Jan-14 21:06N 54°39' E 015°02'30 8.2
2017-Jan-14 17:27N 54°38' E 014°11'70 7.8
2017-Jan-14 08:28N 54°25' E 012°12'9 8.7
2017-Jan-14 07:24N 54°25' E 011°56'7 8.6
2017-Jan-14 06:33N 54°25' E 011°44'9 8.8
2017-Jan-14 05:33N 54°29' E 011°30'9 9.2
2017-Jan-14 04:33N 54°33' E 011°16'9 8.7
2017-Jan-14 03:33N 54°35' E 011°01'57 6.0
2017-Jan-13 18:05N 54°11' E 009°31'5 8.5
2017-Jan-13 17:33N 54°10' E 009°24'8 7.7
2017-Jan-13 16:33N 54°03' E 009°18'8 7.7
2017-Jan-13 15:33N 53°56' E 009°13'3 3.2
2017-Jan-13 14:33N 53°54' E 009°09'1 1.3
2017-Jan-13 13:33N 53°53' E 009°07'1010.2
2017-Jan-13 12:33N 53°50' E 008°50'1110.8
2017-Jan-13 11:33N 53°57' E 008°36'1111.3
2017-Jan-13 10:33N 53°59' E 008°17'1110.7
2017-Jan-13 09:33N 53°58' E 007°59'1110.6
2017-Jan-13 08:33N 53°56' E 007°42'103 8.6
2017-Jan-12 20:32N 53°21' E 004°58'4 4.1
2017-Jan-12 19:33N 53°19' E 005°03'5 4.9
2017-Jan-12 18:33N 53°16' E 005°10'6 6.4
2017-Jan-12 17:33N 53°12' E 005°18'5 4.6
2017-Jan-12 16:33N 53°11' E 005°26'1 0.5
2017-Jan-12 15:31N 53°12' E 005°26'0 0.0
2017-Jan-12 14:31N 53°12' E 005°26'0 0.0
2017-Jan-12 13:31N 53°12' E 005°26'0 0.0
2017-Jan-12 12:31N 53°12' E 005°26'0 0.0
2017-Jan-12 11:31N 53°12' E 005°26'0 0.0
2017-Jan-12 10:31N 53°12' E 005°26'0 0.0
2017-Jan-12 09:31N 53°12' E 005°26'0 0.0
2017-Jan-12 08:31N 53°12' E 005°26'0 0.0
2017-Jan-12 07:31N 53°12' E 005°26'0 0.0
2017-Jan-12 06:31N 53°12' E 005°26'0 0.0
2017-Jan-12 05:31N 53°12' E 005°26'0 0.0
2017-Jan-12 04:31N 53°12' E 005°26'0 0.0
2017-Jan-12 03:31N 53°12' E 005°26'0 0.0
2017-Jan-12 02:31N 53°12' E 005°26'0 0.0
2017-Jan-12 01:31N 53°12' E 005°26'0 0.0
2017-Jan-12 00:31N 53°12' E 005°26'0 0.0
2017-Jan-11 23:31N 53°12' E 005°26'0 0.0
2017-Jan-11 22:31N 53°12' E 005°26'0 0.0
2017-Jan-11 21:31N 53°12' E 005°26'0 0.0
2017-Jan-11 20:34N 53°12' E 005°26'0 0.0
2017-Jan-11 19:33N 53°12' E 005°26'0 0.0
2017-Jan-11 18:33N 53°12' E 005°26'0 0.0
2017-Jan-11 17:33N 53°12' E 005°26'0 0.0
2017-Jan-11 16:33N 53°12' E 005°26'0 0.0
2017-Jan-11 15:33N 53°12' E 005°26'0 0.0
2017-Jan-11 14:33N 53°12' E 005°26'0 0.0
2017-Jan-11 13:33N 53°12' E 005°26'0 0.0
2017-Jan-11 12:33N 53°12' E 005°26'0 0.0
2017-Jan-11 11:33N 53°12' E 005°26'0 0.0
2017-Jan-11 10:33N 53°12' E 005°26'0 0.0
2017-Jan-11 09:33N 53°12' E 005°26'0 0.0
2017-Jan-11 08:33N 53°12' E 005°26'0 0.0
2017-Jan-11 07:33N 53°12' E 005°26'0 0.0
2017-Jan-11 06:33N 53°12' E 005°26'0 0.0
2017-Jan-11 05:33N 53°12' E 005°26'0 0.0
2017-Jan-11 04:33N 53°12' E 005°26'0 0.0
2017-Jan-11 03:33N 53°12' E 005°26'0 0.1
2017-Jan-11 02:34N 53°12' E 005°26'4 4.2
2017-Jan-11 01:33N 53°12' E 005°19'7 7.0
2017-Jan-11 00:33N 53°15' E 005°10'5 5.0
2017-Jan-10 23:33N 53°19' E 005°04'5 4.9
2017-Jan-10 22:33N 53°23' E 004°59'102 8.5
2017-Jan-10 10:32N 53°58' E 007°40'9 9.4
2017-Jan-10 09:33N 53°52' E 007°52'9 9.4
2017-Jan-10 08:33N 53°49' E 008°07'8 8.1
2017-Jan-10 07:33N 53°43' E 008°17'7 7.4
2017-Jan-10 06:33N 53°38' E 008°26'8 7.7
2017-Jan-10 05:33N 53°32' E 008°34'  

Dump ship's entire track history